sensor_id;sensor_type;location;lat;lon;timestamp;P1;durP1;ratioP1;P2;durP2;ratioP2
11927;SDS011;6023;47.070;15.126;2022-09-09T00:01:41;3.20;;;0.80;;
11927;SDS011;6023;47.070;15.126;2022-09-09T00:04:18;2.13;;;0.90;;
11927;SDS011;6023;47.070;15.126;2022-09-09T00:06:56;1.00;;;0.73;;
11927;SDS011;6023;47.070;15.126;2022-09-09T00:09:31;2.17;;;0.90;;
11927;SDS011;6023;47.070;15.126;2022-09-09T00:12:06;1.80;;;0.93;;
11927;SDS011;6023;47.070;15.126;2022-09-09T00:14:42;4.70;;;1.23;;
11927;SDS011;6023;47.070;15.126;2022-09-09T00:17:18;2.53;;;0.90;;
11927;SDS011;6023;47.070;15.126;2022-09-09T00:19:56;2.57;;;1.13;;
11927;SDS011;6023;47.070;15.126;2022-09-09T00:22:28;0.90;;;0.80;;
11927;SDS011;6023;47.070;15.126;2022-09-09T00:25:01;4.00;;;1.07;;
11927;SDS011;6023;47.070;15.126;2022-09-09T00:27:35;1.20;;;0.90;;
11927;SDS011;6023;47.070;15.126;2022-09-09T00:30:14;1.77;;;1.10;;
11927;SDS011;6023;47.070;15.126;2022-09-09T00:32:47;2.27;;;0.83;;
11927;SDS011;6023;47.070;15.126;2022-09-09T00:35:18;1.20;;;0.70;;
11927;SDS011;6023;47.070;15.126;2022-09-09T00:37:51;4.47;;;0.87;;
11927;SDS011;6023;47.070;15.126;2022-09-09T00:40:26;2.80;;;0.80;;
11927;SDS011;6023;47.070;15.126;2022-09-09T00:43:03;2.40;;;0.93;;
11927;SDS011;6023;47.070;15.126;2022-09-09T00:45:58;2.40;;;0.80;;
11927;SDS011;6023;47.070;15.126;2022-09-09T00:48:38;2.10;;;0.80;;
11927;SDS011;6023;47.070;15.126;2022-09-09T00:51:14;1.13;;;0.60;;
11927;SDS011;6023;47.070;15.126;2022-09-09T00:53:56;2.23;;;0.70;;
11927;SDS011;6023;47.070;15.126;2022-09-09T00:56:33;2.90;;;0.90;;
11927;SDS011;6023;47.070;15.126;2022-09-09T00:59:12;1.07;;;0.70;;
11927;SDS011;6023;47.070;15.126;2022-09-09T01:01:55;3.00;;;1.00;;
11927;SDS011;6023;47.070;15.126;2022-09-09T01:04:25;3.17;;;0.90;;
11927;SDS011;6023;47.070;15.126;2022-09-09T01:06:59;0.60;;;0.60;;
11927;SDS011;6023;47.070;15.126;2022-09-09T01:09:32;2.03;;;0.90;;
11927;SDS011;6023;47.070;15.126;2022-09-09T01:12:07;3.13;;;1.07;;
11927;SDS011;6023;47.070;15.126;2022-09-09T01:14:40;1.13;;;0.77;;
11927;SDS011;6023;47.070;15.126;2022-09-09T01:17:13;1.87;;;0.73;;
11927;SDS011;6023;47.070;15.126;2022-09-09T01:19:49;0.90;;;0.63;;
11927;SDS011;6023;47.070;15.126;2022-09-09T01:22:30;2.77;;;1.03;;
11927;SDS011;6023;47.070;15.126;2022-09-09T01:25:11;1.47;;;1.20;;
11927;SDS011;6023;47.070;15.126;2022-09-09T01:27:56;2.27;;;1.10;;
11927;SDS011;6023;47.070;15.126;2022-09-09T01:30:28;3.63;;;1.07;;
11927;SDS011;6023;47.070;15.126;2022-09-09T01:32:58;3.97;;;1.23;;
11927;SDS011;6023;47.070;15.126;2022-09-09T01:35:29;1.83;;;0.73;;
11927;SDS011;6023;47.070;15.126;2022-09-09T01:38:05;1.57;;;0.77;;
11927;SDS011;6023;47.070;15.126;2022-09-09T01:40:34;1.53;;;0.70;;
11927;SDS011;6023;47.070;15.126;2022-09-09T01:43:04;2.83;;;0.87;;
11927;SDS011;6023;47.070;15.126;2022-09-09T01:45:33;1.97;;;0.73;;
11927;SDS011;6023;47.070;15.126;2022-09-09T01:48:02;1.17;;;0.80;;
11927;SDS011;6023;47.070;15.126;2022-09-09T01:50:31;1.47;;;0.60;;
11927;SDS011;6023;47.070;15.126;2022-09-09T01:52:59;2.30;;;0.93;;
11927;SDS011;6023;47.070;15.126;2022-09-09T01:55:29;1.80;;;0.83;;
11927;SDS011;6023;47.070;15.126;2022-09-09T01:58:05;3.23;;;1.10;;
11927;SDS011;6023;47.070;15.126;2022-09-09T02:00:44;1.43;;;0.90;;
11927;SDS011;6023;47.070;15.126;2022-09-09T02:03:17;1.73;;;1.00;;
11927;SDS011;6023;47.070;15.126;2022-09-09T02:05:50;1.37;;;0.70;;
11927;SDS011;6023;47.070;15.126;2022-09-09T02:08:24;0.80;;;0.80;;
11927;SDS011;6023;47.070;15.126;2022-09-09T02:10:58;1.47;;;0.90;;
11927;SDS011;6023;47.070;15.126;2022-09-09T02:13:31;1.90;;;0.90;;
11927;SDS011;6023;47.070;15.126;2022-09-09T02:16:02;0.73;;;0.73;;
11927;SDS011;6023;47.070;15.126;2022-09-09T02:18:35;1.33;;;0.80;;
11927;SDS011;6023;47.070;15.126;2022-09-09T02:21:04;0.93;;;0.93;;
11927;SDS011;6023;47.070;15.126;2022-09-09T02:23:33;1.53;;;0.83;;
11927;SDS011;6023;47.070;15.126;2022-09-09T02:26:03;2.23;;;0.80;;
11927;SDS011;6023;47.070;15.126;2022-09-09T02:28:33;1.97;;;0.90;;
11927;SDS011;6023;47.070;15.126;2022-09-09T02:31:03;4.13;;;0.97;;
11927;SDS011;6023;47.070;15.126;2022-09-09T02:33:33;1.30;;;0.70;;
11927;SDS011;6023;47.070;15.126;2022-09-09T02:36:06;2.57;;;1.00;;
11927;SDS011;6023;47.070;15.126;2022-09-09T02:38:37;1.00;;;0.90;;
11927;SDS011;6023;47.070;15.126;2022-09-09T02:41:10;2.20;;;0.90;;
11927;SDS011;6023;47.070;15.126;2022-09-09T02:43:40;0.70;;;0.70;;
11927;SDS011;6023;47.070;15.126;2022-09-09T02:46:11;2.73;;;1.03;;
11927;SDS011;6023;47.070;15.126;2022-09-09T02:48:55;1.33;;;1.00;;
11927;SDS011;6023;47.070;15.126;2022-09-09T02:51:30;2.47;;;0.90;;
11927;SDS011;6023;47.070;15.126;2022-09-09T02:54:04;3.00;;;1.33;;
11927;SDS011;6023;47.070;15.126;2022-09-09T02:56:38;2.53;;;1.67;;
11927;SDS011;6023;47.070;15.126;2022-09-09T02:59:09;4.47;;;1.93;;
11927;SDS011;6023;47.070;15.126;2022-09-09T03:01:38;4.13;;;1.00;;
11927;SDS011;6023;47.070;15.126;2022-09-09T03:04:06;1.53;;;0.83;;
11927;SDS011;6023;47.070;15.126;2022-09-09T03:06:35;0.90;;;0.90;;
11927;SDS011;6023;47.070;15.126;2022-09-09T03:11:53;3.87;;;1.60;;
11927;SDS011;6023;47.070;15.126;2022-09-09T03:14:24;1.20;;;1.10;;
11927;SDS011;6023;47.070;15.126;2022-09-09T03:16:53;3.03;;;1.97;;
11927;SDS011;6023;47.070;15.126;2022-09-09T03:19:23;3.67;;;1.83;;
11927;SDS011;6023;47.070;15.126;2022-09-09T03:21:52;2.53;;;1.37;;
11927;SDS011;6023;47.070;15.126;2022-09-09T03:24:21;1.93;;;1.53;;
11927;SDS011;6023;47.070;15.126;2022-09-09T03:26:50;2.53;;;2.23;;
11927;SDS011;6023;47.070;15.126;2022-09-09T03:29:18;6.63;;;5.47;;
11927;SDS011;6023;47.070;15.126;2022-09-09T03:31:48;5.67;;;4.43;;
11927;SDS011;6023;47.070;15.126;2022-09-09T03:34:18;5.03;;;3.40;;
11927;SDS011;6023;47.070;15.126;2022-09-09T03:36:46;4.00;;;3.60;;
11927;SDS011;6023;47.070;15.126;2022-09-09T03:39:16;4.00;;;2.27;;
11927;SDS011;6023;47.070;15.126;2022-09-09T03:41:44;4.30;;;2.40;;
11927;SDS011;6023;47.070;15.126;2022-09-09T03:44:14;5.23;;;1.73;;
11927;SDS011;6023;47.070;15.126;2022-09-09T03:46:43;2.43;;;1.60;;
11927;SDS011;6023;47.070;15.126;2022-09-09T03:49:13;5.73;;;4.70;;
11927;SDS011;6023;47.070;15.126;2022-09-09T03:51:41;6.97;;;5.40;;
11927;SDS011;6023;47.070;15.126;2022-09-09T03:54:10;5.83;;;3.30;;
11927;SDS011;6023;47.070;15.126;2022-09-09T03:56:39;6.70;;;3.10;;
11927;SDS011;6023;47.070;15.126;2022-09-09T03:59:08;2.43;;;2.10;;
11927;SDS011;6023;47.070;15.126;2022-09-09T04:01:37;3.10;;;2.10;;
11927;SDS011;6023;47.070;15.126;2022-09-09T04:04:20;2.60;;;2.20;;
11927;SDS011;6023;47.070;15.126;2022-09-09T04:06:49;2.87;;;2.50;;
11927;SDS011;6023;47.070;15.126;2022-09-09T04:09:29;9.50;;;8.53;;
11927;SDS011;6023;47.070;15.126;2022-09-09T04:11:58;7.87;;;5.60;;
11927;SDS011;6023;47.070;15.126;2022-09-09T04:14:26;4.60;;;3.30;;
11927;SDS011;6023;47.070;15.126;2022-09-09T04:16:55;3.20;;;2.90;;
11927;SDS011;6023;47.070;15.126;2022-09-09T04:19:26;3.40;;;2.53;;
11927;SDS011;6023;47.070;15.126;2022-09-09T04:21:54;2.53;;;2.30;;
11927;SDS011;6023;47.070;15.126;2022-09-09T04:24:23;1.83;;;1.73;;
11927;SDS011;6023;47.070;15.126;2022-09-09T04:26:55;1.50;;;1.40;;
11927;SDS011;6023;47.070;15.126;2022-09-09T04:29:24;1.83;;;1.43;;
11927;SDS011;6023;47.070;15.126;2022-09-09T04:31:52;1.60;;;1.50;;
11927;SDS011;6023;47.070;15.126;2022-09-09T04:34:21;1.20;;;1.20;;
11927;SDS011;6023;47.070;15.126;2022-09-09T04:36:51;1.40;;;1.40;;
11927;SDS011;6023;47.070;15.126;2022-09-09T04:39:19;1.70;;;1.60;;
11927;SDS011;6023;47.070;15.126;2022-09-09T04:41:47;1.70;;;1.60;;
11927;SDS011;6023;47.070;15.126;2022-09-09T04:44:16;1.40;;;1.30;;
11927;SDS011;6023;47.070;15.126;2022-09-09T04:46:44;1.90;;;1.53;;
11927;SDS011;6023;47.070;15.126;2022-09-09T04:49:13;1.73;;;1.40;;
11927;SDS011;6023;47.070;15.126;2022-09-09T04:51:41;2.53;;;1.40;;
11927;SDS011;6023;47.070;15.126;2022-09-09T04:54:11;2.60;;;1.37;;
11927;SDS011;6023;47.070;15.126;2022-09-09T04:56:39;2.43;;;1.60;;
11927;SDS011;6023;47.070;15.126;2022-09-09T04:59:09;1.77;;;1.63;;
11927;SDS011;6023;47.070;15.126;2022-09-09T05:01:38;1.60;;;1.50;;
11927;SDS011;6023;47.070;15.126;2022-09-09T05:04:07;2.10;;;1.50;;
11927;SDS011;6023;47.070;15.126;2022-09-09T05:06:36;2.23;;;1.57;;
11927;SDS011;6023;47.070;15.126;2022-09-09T05:09:04;1.43;;;1.33;;
11927;SDS011;6023;47.070;15.126;2022-09-09T05:11:34;1.50;;;1.40;;
11927;SDS011;6023;47.070;15.126;2022-09-09T05:14:04;3.07;;;1.80;;
11927;SDS011;6023;47.070;15.126;2022-09-09T05:16:32;3.43;;;1.60;;
11927;SDS011;6023;47.070;15.126;2022-09-09T05:19:01;2.70;;;1.80;;
11927;SDS011;6023;47.070;15.126;2022-09-09T05:21:30;1.80;;;1.70;;
11927;SDS011;6023;47.070;15.126;2022-09-09T05:23:59;2.03;;;1.50;;
11927;SDS011;6023;47.070;15.126;2022-09-09T05:26:28;1.50;;;1.40;;
11927;SDS011;6023;47.070;15.126;2022-09-09T05:28:59;3.07;;;1.60;;
11927;SDS011;6023;47.070;15.126;2022-09-09T05:31:29;2.00;;;1.50;;
11927;SDS011;6023;47.070;15.126;2022-09-09T05:33:58;1.73;;;1.40;;
11927;SDS011;6023;47.070;15.126;2022-09-09T05:36:27;1.60;;;1.50;;
11927;SDS011;6023;47.070;15.126;2022-09-09T05:38:55;1.77;;;1.67;;
11927;SDS011;6023;47.070;15.126;2022-09-09T05:41:24;3.17;;;1.70;;
11927;SDS011;6023;47.070;15.126;2022-09-09T05:43:52;3.23;;;1.40;;
11927;SDS011;6023;47.070;15.126;2022-09-09T05:46:22;2.73;;;1.50;;
11927;SDS011;6023;47.070;15.126;2022-09-09T05:48:52;3.17;;;1.57;;
11927;SDS011;6023;47.070;15.126;2022-09-09T05:51:21;2.30;;;1.30;;
11927;SDS011;6023;47.070;15.126;2022-09-09T05:53:51;3.30;;;1.33;;
11927;SDS011;6023;47.070;15.126;2022-09-09T05:56:22;2.03;;;1.50;;
11927;SDS011;6023;47.070;15.126;2022-09-09T05:58:52;4.10;;;1.50;;
11927;SDS011;6023;47.070;15.126;2022-09-09T06:01:23;4.57;;;1.60;;
11927;SDS011;6023;47.070;15.126;2022-09-09T06:03:53;3.77;;;1.80;;
11927;SDS011;6023;47.070;15.126;2022-09-09T06:06:22;3.40;;;1.53;;
11927;SDS011;6023;47.070;15.126;2022-09-09T06:08:53;4.63;;;1.70;;
11927;SDS011;6023;47.070;15.126;2022-09-09T06:11:23;4.30;;;1.70;;
11927;SDS011;6023;47.070;15.126;2022-09-09T06:13:52;6.10;;;2.20;;
11927;SDS011;6023;47.070;15.126;2022-09-09T06:16:23;3.53;;;1.77;;
11927;SDS011;6023;47.070;15.126;2022-09-09T06:18:53;3.67;;;1.77;;
11927;SDS011;6023;47.070;15.126;2022-09-09T06:21:23;4.63;;;1.80;;
11927;SDS011;6023;47.070;15.126;2022-09-09T06:23:52;3.93;;;1.60;;
11927;SDS011;6023;47.070;15.126;2022-09-09T06:26:27;3.77;;;1.90;;
11927;SDS011;6023;47.070;15.126;2022-09-09T06:28:57;3.87;;;1.70;;
11927;SDS011;6023;47.070;15.126;2022-09-09T06:31:28;7.87;;;1.53;;
11927;SDS011;6023;47.070;15.126;2022-09-09T06:33:57;3.13;;;1.60;;
11927;SDS011;6023;47.070;15.126;2022-09-09T06:36:29;4.27;;;1.67;;
11927;SDS011;6023;47.070;15.126;2022-09-09T06:38:59;4.30;;;1.90;;
11927;SDS011;6023;47.070;15.126;2022-09-09T06:41:28;5.90;;;1.67;;
11927;SDS011;6023;47.070;15.126;2022-09-09T06:43:57;8.53;;;1.90;;
11927;SDS011;6023;47.070;15.126;2022-09-09T06:46:27;6.43;;;1.90;;
11927;SDS011;6023;47.070;15.126;2022-09-09T06:48:57;6.93;;;2.00;;
11927;SDS011;6023;47.070;15.126;2022-09-09T06:51:27;5.23;;;1.70;;
11927;SDS011;6023;47.070;15.126;2022-09-09T06:53:58;3.23;;;1.70;;
11927;SDS011;6023;47.070;15.126;2022-09-09T06:56:29;3.40;;;1.93;;
11927;SDS011;6023;47.070;15.126;2022-09-09T06:59:00;4.63;;;1.70;;
11927;SDS011;6023;47.070;15.126;2022-09-09T07:01:32;2.93;;;1.70;;
11927;SDS011;6023;47.070;15.126;2022-09-09T07:04:03;4.60;;;1.83;;
11927;SDS011;6023;47.070;15.126;2022-09-09T07:06:35;3.60;;;1.87;;
11927;SDS011;6023;47.070;15.126;2022-09-09T07:09:05;3.67;;;2.00;;
11927;SDS011;6023;47.070;15.126;2022-09-09T07:11:37;4.70;;;2.00;;
11927;SDS011;6023;47.070;15.126;2022-09-09T07:14:09;3.77;;;1.97;;
11927;SDS011;6023;47.070;15.126;2022-09-09T07:16:42;4.07;;;1.83;;
11927;SDS011;6023;47.070;15.126;2022-09-09T07:19:11;4.10;;;1.60;;
11927;SDS011;6023;47.070;15.126;2022-09-09T07:21:41;3.80;;;1.63;;
11927;SDS011;6023;47.070;15.126;2022-09-09T07:24:10;2.07;;;1.40;;
11927;SDS011;6023;47.070;15.126;2022-09-09T07:26:39;3.27;;;1.73;;
11927;SDS011;6023;47.070;15.126;2022-09-09T07:29:08;4.77;;;2.07;;
11927;SDS011;6023;47.070;15.126;2022-09-09T07:31:37;2.10;;;1.47;;
11927;SDS011;6023;47.070;15.126;2022-09-09T07:34:09;4.23;;;1.90;;
11927;SDS011;6023;47.070;15.126;2022-09-09T07:36:38;2.60;;;1.60;;
11927;SDS011;6023;47.070;15.126;2022-09-09T07:39:11;2.47;;;1.60;;
11927;SDS011;6023;47.070;15.126;2022-09-09T07:41:41;2.97;;;1.60;;
11927;SDS011;6023;47.070;15.126;2022-09-09T07:44:12;3.57;;;1.47;;
11927;SDS011;6023;47.070;15.126;2022-09-09T07:46:42;2.80;;;1.37;;
11927;SDS011;6023;47.070;15.126;2022-09-09T07:49:13;4.03;;;1.57;;
11927;SDS011;6023;47.070;15.126;2022-09-09T07:51:42;3.03;;;1.70;;
11927;SDS011;6023;47.070;15.126;2022-09-09T07:54:12;3.67;;;1.57;;
11927;SDS011;6023;47.070;15.126;2022-09-09T07:56:42;2.20;;;1.50;;
11927;SDS011;6023;47.070;15.126;2022-09-09T07:59:10;3.27;;;1.60;;
11927;SDS011;6023;47.070;15.126;2022-09-09T08:01:39;3.03;;;1.53;;
11927;SDS011;6023;47.070;15.126;2022-09-09T08:04:09;4.27;;;2.00;;
11927;SDS011;6023;47.070;15.126;2022-09-09T08:06:44;3.07;;;1.60;;
11927;SDS011;6023;47.070;15.126;2022-09-09T08:09:14;3.97;;;1.70;;
11927;SDS011;6023;47.070;15.126;2022-09-09T08:11:43;2.80;;;1.83;;
11927;SDS011;6023;47.070;15.126;2022-09-09T08:14:12;3.53;;;1.90;;
11927;SDS011;6023;47.070;15.126;2022-09-09T08:16:41;3.93;;;1.87;;
11927;SDS011;6023;47.070;15.126;2022-09-09T08:19:11;4.27;;;1.73;;
11927;SDS011;6023;47.070;15.126;2022-09-09T08:21:43;2.93;;;1.87;;
11927;SDS011;6023;47.070;15.126;2022-09-09T08:24:13;3.43;;;2.00;;
11927;SDS011;6023;47.070;15.126;2022-09-09T08:26:42;4.57;;;2.27;;
11927;SDS011;6023;47.070;15.126;2022-09-09T08:29:12;2.77;;;2.07;;
11927;SDS011;6023;47.070;15.126;2022-09-09T08:31:42;4.53;;;2.17;;
11927;SDS011;6023;47.070;15.126;2022-09-09T08:34:12;2.57;;;1.90;;
11927;SDS011;6023;47.070;15.126;2022-09-09T08:36:41;4.33;;;2.00;;
11927;SDS011;6023;47.070;15.126;2022-09-09T08:39:13;3.03;;;1.83;;
11927;SDS011;6023;47.070;15.126;2022-09-09T08:41:55;4.90;;;1.90;;
11927;SDS011;6023;47.070;15.126;2022-09-09T08:44:31;4.50;;;2.10;;
11927;SDS011;6023;47.070;15.126;2022-09-09T08:47:18;4.57;;;1.80;;
11927;SDS011;6023;47.070;15.126;2022-09-09T08:50:02;5.13;;;2.00;;
11927;SDS011;6023;47.070;15.126;2022-09-09T08:52:36;4.07;;;2.30;;
11927;SDS011;6023;47.070;15.126;2022-09-09T08:55:15;3.97;;;2.13;;
11927;SDS011;6023;47.070;15.126;2022-09-09T08:57:51;3.43;;;2.20;;
11927;SDS011;6023;47.070;15.126;2022-09-09T09:00:21;3.30;;;1.80;;
11927;SDS011;6023;47.070;15.126;2022-09-09T09:02:53;3.50;;;1.90;;
11927;SDS011;6023;47.070;15.126;2022-09-09T09:05:28;2.07;;;1.70;;
11927;SDS011;6023;47.070;15.126;2022-09-09T09:08:03;2.73;;;1.70;;
11927;SDS011;6023;47.070;15.126;2022-09-09T09:10:41;2.47;;;1.80;;
11927;SDS011;6023;47.070;15.126;2022-09-09T09:13:15;2.77;;;1.60;;
11927;SDS011;6023;47.070;15.126;2022-09-09T09:15:49;1.60;;;1.50;;
11927;SDS011;6023;47.070;15.126;2022-09-09T09:18:20;2.00;;;1.80;;
11927;SDS011;6023;47.070;15.126;2022-09-09T09:20:54;5.37;;;2.23;;
11927;SDS011;6023;47.070;15.126;2022-09-09T09:23:29;4.33;;;2.00;;
11927;SDS011;6023;47.070;15.126;2022-09-09T09:26:07;3.40;;;2.10;;
11927;SDS011;6023;47.070;15.126;2022-09-09T09:28:42;1.70;;;1.60;;
11927;SDS011;6023;47.070;15.126;2022-09-09T09:31:11;4.27;;;1.80;;
11927;SDS011;6023;47.070;15.126;2022-09-09T09:33:43;2.90;;;1.50;;
11927;SDS011;6023;47.070;15.126;2022-09-09T09:36:16;2.10;;;1.53;;
11927;SDS011;6023;47.070;15.126;2022-09-09T09:38:51;2.47;;;1.70;;
11927;SDS011;6023;47.070;15.126;2022-09-09T09:41:43;1.93;;;1.60;;
11927;SDS011;6023;47.070;15.126;2022-09-09T09:44:21;2.17;;;1.60;;
11927;SDS011;6023;47.070;15.126;2022-09-09T09:46:51;1.97;;;1.67;;
11927;SDS011;6023;47.070;15.126;2022-09-09T09:49:20;2.77;;;1.73;;
11927;SDS011;6023;47.070;15.126;2022-09-09T09:51:48;3.00;;;1.50;;
11927;SDS011;6023;47.070;15.126;2022-09-09T09:54:22;1.60;;;1.30;;
11927;SDS011;6023;47.070;15.126;2022-09-09T09:56:56;4.03;;;1.43;;
11927;SDS011;6023;47.070;15.126;2022-09-09T09:59:35;2.50;;;1.40;;
11927;SDS011;6023;47.070;15.126;2022-09-09T10:02:20;3.13;;;2.13;;
11927;SDS011;6023;47.070;15.126;2022-09-09T10:05:00;2.33;;;1.90;;
11927;SDS011;6023;47.070;15.126;2022-09-09T10:07:30;1.23;;;1.10;;
11927;SDS011;6023;47.070;15.126;2022-09-09T10:09:59;1.13;;;1.13;;
11927;SDS011;6023;47.070;15.126;2022-09-09T10:12:33;2.33;;;1.50;;
11927;SDS011;6023;47.070;15.126;2022-09-09T10:15:13;2.70;;;1.50;;
11927;SDS011;6023;47.070;15.126;2022-09-09T10:17:54;1.97;;;1.50;;
11927;SDS011;6023;47.070;15.126;2022-09-09T10:20:29;2.47;;;1.40;;
11927;SDS011;6023;47.070;15.126;2022-09-09T10:23:05;2.80;;;1.20;;
11927;SDS011;6023;47.070;15.126;2022-09-09T10:25:48;1.57;;;1.20;;
11927;SDS011;6023;47.070;15.126;2022-09-09T10:28:30;2.23;;;1.30;;
11927;SDS011;6023;47.070;15.126;2022-09-09T10:31:10;1.40;;;1.30;;
11927;SDS011;6023;47.070;15.126;2022-09-09T10:33:48;1.40;;;1.30;;
11927;SDS011;6023;47.070;15.126;2022-09-09T10:36:20;3.27;;;1.53;;
11927;SDS011;6023;47.070;15.126;2022-09-09T10:38:52;1.33;;;1.23;;
11927;SDS011;6023;47.070;15.126;2022-09-09T10:41:31;1.47;;;1.30;;
11927;SDS011;6023;47.070;15.126;2022-09-09T10:47:19;1.73;;;1.50;;
11927;SDS011;6023;47.070;15.126;2022-09-09T10:50:02;1.47;;;1.37;;
11927;SDS011;6023;47.070;15.126;2022-09-09T10:53:14;2.27;;;1.37;;
11927;SDS011;6023;47.070;15.126;2022-09-09T10:55:48;1.63;;;1.50;;
11927;SDS011;6023;47.070;15.126;2022-09-09T10:58:22;2.20;;;1.40;;
11927;SDS011;6023;47.070;15.126;2022-09-09T11:00:53;3.33;;;1.60;;
11927;SDS011;6023;47.070;15.126;2022-09-09T11:03:25;1.73;;;1.63;;
11927;SDS011;6023;47.070;15.126;2022-09-09T11:05:56;3.17;;;1.90;;
11927;SDS011;6023;47.070;15.126;2022-09-09T11:08:28;1.97;;;1.50;;
11927;SDS011;6023;47.070;15.126;2022-09-09T11:10:59;3.30;;;1.70;;
11927;SDS011;6023;47.070;15.126;2022-09-09T11:13:32;2.50;;;1.70;;
11927;SDS011;6023;47.070;15.126;2022-09-09T11:16:09;1.97;;;1.63;;
11927;SDS011;6023;47.070;15.126;2022-09-09T11:18:45;1.90;;;1.50;;
11927;SDS011;6023;47.070;15.126;2022-09-09T11:21:16;1.70;;;1.60;;
11927;SDS011;6023;47.070;15.126;2022-09-09T11:23:50;1.80;;;1.60;;
11927;SDS011;6023;47.070;15.126;2022-09-09T11:26:30;2.30;;;1.50;;
11927;SDS011;6023;47.070;15.126;2022-09-09T11:29:05;2.43;;;1.60;;
11927;SDS011;6023;47.070;15.126;2022-09-09T11:31:45;2.07;;;1.80;;
11927;SDS011;6023;47.070;15.126;2022-09-09T11:34:27;1.77;;;1.67;;
11927;SDS011;6023;47.070;15.126;2022-09-09T11:37:10;4.50;;;2.80;;
11927;SDS011;6023;47.070;15.126;2022-09-09T11:39:53;4.57;;;3.37;;
11927;SDS011;6023;47.070;15.126;2022-09-09T11:42:47;3.20;;;2.17;;
11927;SDS011;6023;47.070;15.126;2022-09-09T11:45:21;28.50;;;23.40;;
11927;SDS011;6023;47.070;15.126;2022-09-09T11:47:53;7.73;;;6.43;;
11927;SDS011;6023;47.070;15.126;2022-09-09T11:50:34;4.83;;;4.30;;
11927;SDS011;6023;47.070;15.126;2022-09-09T11:53:17;8.77;;;7.03;;
11927;SDS011;6023;47.070;15.126;2022-09-09T11:56:05;2.60;;;2.40;;
11927;SDS011;6023;47.070;15.126;2022-09-09T11:58:37;3.70;;;2.87;;
11927;SDS011;6023;47.070;15.126;2022-09-09T12:06:50;3.70;;;3.03;;
11927;SDS011;6023;47.070;15.126;2022-09-09T12:09:23;9.60;;;8.60;;
11927;SDS011;6023;47.070;15.126;2022-09-09T12:12:04;11.37;;;6.90;;
11927;SDS011;6023;47.070;15.126;2022-09-09T12:14:36;9.20;;;5.73;;
11927;SDS011;6023;47.070;15.126;2022-09-09T12:17:09;29.73;;;26.57;;
11927;SDS011;6023;47.070;15.126;2022-09-09T12:19:46;12.53;;;11.27;;
11927;SDS011;6023;47.070;15.126;2022-09-09T12:22:20;34.87;;;22.30;;
11927;SDS011;6023;47.070;15.126;2022-09-09T12:24:53;7.03;;;6.17;;
11927;SDS011;6023;47.070;15.126;2022-09-09T12:27:26;6.37;;;3.90;;
11927;SDS011;6023;47.070;15.126;2022-09-09T12:30:00;21.07;;;17.83;;
11927;SDS011;6023;47.070;15.126;2022-09-09T12:32:33;36.60;;;25.37;;
11927;SDS011;6023;47.070;15.126;2022-09-09T12:35:02;29.13;;;19.93;;
11927;SDS011;6023;47.070;15.126;2022-09-09T12:37:35;15.87;;;10.90;;
11927;SDS011;6023;47.070;15.126;2022-09-09T12:40:06;18.27;;;10.87;;
11927;SDS011;6023;47.070;15.126;2022-09-09T12:42:48;15.93;;;11.57;;
11927;SDS011;6023;47.070;15.126;2022-09-09T12:45:18;7.03;;;6.30;;
11927;SDS011;6023;47.070;15.126;2022-09-09T12:47:48;7.00;;;5.87;;
11927;SDS011;6023;47.070;15.126;2022-09-09T12:50:20;9.37;;;7.43;;
11927;SDS011;6023;47.070;15.126;2022-09-09T12:52:54;6.30;;;4.53;;
11927;SDS011;6023;47.070;15.126;2022-09-09T12:55:27;5.60;;;4.97;;
11927;SDS011;6023;47.070;15.126;2022-09-09T12:57:56;9.70;;;8.17;;
11927;SDS011;6023;47.070;15.126;2022-09-09T13:00:26;4.10;;;3.57;;
11927;SDS011;6023;47.070;15.126;2022-09-09T13:02:57;4.30;;;3.00;;
11927;SDS011;6023;47.070;15.126;2022-09-09T13:05:27;4.43;;;3.30;;
11927;SDS011;6023;47.070;15.126;2022-09-09T13:08:02;4.63;;;2.90;;
11927;SDS011;6023;47.070;15.126;2022-09-09T13:10:31;4.67;;;3.50;;
11927;SDS011;6023;47.070;15.126;2022-09-09T13:13:19;3.97;;;3.17;;
11927;SDS011;6023;47.070;15.126;2022-09-09T13:15:49;7.07;;;5.33;;
11927;SDS011;6023;47.070;15.126;2022-09-09T13:18:20;4.70;;;3.40;;
11927;SDS011;6023;47.070;15.126;2022-09-09T13:20:50;3.20;;;2.90;;
11927;SDS011;6023;47.070;15.126;2022-09-09T13:23:20;3.00;;;2.70;;
11927;SDS011;6023;47.070;15.126;2022-09-09T13:25:53;3.03;;;2.70;;
11927;SDS011;6023;47.070;15.126;2022-09-09T13:28:23;4.70;;;4.30;;
11927;SDS011;6023;47.070;15.126;2022-09-09T13:30:59;4.20;;;3.60;;
11927;SDS011;6023;47.070;15.126;2022-09-09T13:33:31;3.70;;;2.97;;
11927;SDS011;6023;47.070;15.126;2022-09-09T13:36:01;3.10;;;2.77;;
11927;SDS011;6023;47.070;15.126;2022-09-09T13:38:35;3.17;;;2.60;;
11927;SDS011;6023;47.070;15.126;2022-09-09T13:41:05;3.17;;;2.70;;
11927;SDS011;6023;47.070;15.126;2022-09-09T13:43:35;3.53;;;2.50;;
11927;SDS011;6023;47.070;15.126;2022-09-09T13:46:19;2.67;;;2.40;;
11927;SDS011;6023;47.070;15.126;2022-09-09T13:48:55;2.60;;;2.23;;
11927;SDS011;6023;47.070;15.126;2022-09-09T13:51:33;3.23;;;2.90;;
11927;SDS011;6023;47.070;15.126;2022-09-09T13:54:05;2.30;;;2.10;;
11927;SDS011;6023;47.070;15.126;2022-09-09T13:56:34;2.50;;;2.27;;
11927;SDS011;6023;47.070;15.126;2022-09-09T13:59:04;5.30;;;3.83;;
11927;SDS011;6023;47.070;15.126;2022-09-09T14:01:34;3.13;;;2.77;;
11927;SDS011;6023;47.070;15.126;2022-09-09T14:04:04;2.50;;;2.30;;
11927;SDS011;6023;47.070;15.126;2022-09-09T14:06:33;1.70;;;1.60;;
11927;SDS011;6023;47.070;15.126;2022-09-09T14:09:06;2.20;;;2.00;;
11927;SDS011;6023;47.070;15.126;2022-09-09T14:11:36;3.00;;;1.87;;
11927;SDS011;6023;47.070;15.126;2022-09-09T14:14:04;1.73;;;1.53;;
11927;SDS011;6023;47.070;15.126;2022-09-09T14:16:32;2.20;;;1.80;;
11927;SDS011;6023;47.070;15.126;2022-09-09T14:19:01;1.80;;;1.70;;
11927;SDS011;6023;47.070;15.126;2022-09-09T14:21:30;2.47;;;2.20;;
11927;SDS011;6023;47.070;15.126;2022-09-09T14:23:59;2.43;;;2.20;;
11927;SDS011;6023;47.070;15.126;2022-09-09T14:26:28;3.80;;;2.50;;
11927;SDS011;6023;47.070;15.126;2022-09-09T14:28:57;2.77;;;2.30;;
11927;SDS011;6023;47.070;15.126;2022-09-09T14:31:27;3.57;;;2.50;;
11927;SDS011;6023;47.070;15.126;2022-09-09T14:33:56;3.30;;;2.70;;
11927;SDS011;6023;47.070;15.126;2022-09-09T14:36:25;4.33;;;3.10;;
11927;SDS011;6023;47.070;15.126;2022-09-09T14:38:54;5.30;;;4.00;;
11927;SDS011;6023;47.070;15.126;2022-09-09T14:41:22;4.30;;;3.90;;
11927;SDS011;6023;47.070;15.126;2022-09-09T14:43:53;4.07;;;3.70;;
11927;SDS011;6023;47.070;15.126;2022-09-09T14:46:21;2.80;;;2.60;;
11927;SDS011;6023;47.070;15.126;2022-09-09T14:48:51;2.60;;;2.40;;
11927;SDS011;6023;47.070;15.126;2022-09-09T14:51:24;2.70;;;2.50;;
11927;SDS011;6023;47.070;15.126;2022-09-09T14:53:55;7.87;;;6.80;;
11927;SDS011;6023;47.070;15.126;2022-09-09T14:56:26;5.77;;;4.67;;
11927;SDS011;6023;47.070;15.126;2022-09-09T14:58:58;2.27;;;1.90;;
11927;SDS011;6023;47.070;15.126;2022-09-09T15:01:29;3.13;;;2.07;;
11927;SDS011;6023;47.070;15.126;2022-09-09T15:03:59;3.10;;;2.10;;
11927;SDS011;6023;47.070;15.126;2022-09-09T15:06:29;1.70;;;1.60;;
11927;SDS011;6023;47.070;15.126;2022-09-09T15:09:01;2.00;;;1.80;;
11927;SDS011;6023;47.070;15.126;2022-09-09T15:11:31;5.77;;;4.40;;
11927;SDS011;6023;47.070;15.126;2022-09-09T15:14:06;5.83;;;4.50;;
11927;SDS011;6023;47.070;15.126;2022-09-09T15:16:35;4.63;;;3.53;;
11927;SDS011;6023;47.070;15.126;2022-09-09T15:19:04;2.60;;;2.30;;
11927;SDS011;6023;47.070;15.126;2022-09-09T15:21:34;2.27;;;2.10;;
11927;SDS011;6023;47.070;15.126;2022-09-09T15:24:04;3.27;;;2.10;;
11927;SDS011;6023;47.070;15.126;2022-09-09T15:26:34;3.23;;;1.90;;
11927;SDS011;6023;47.070;15.126;2022-09-09T15:29:06;10.10;;;9.10;;
11927;SDS011;6023;47.070;15.126;2022-09-09T15:31:35;5.13;;;4.60;;